Chilik Southeast Airfield

Jump to: basic info | weather | comments

Related pages: nearby airports | nearby navaids

Basic information (top)

Location: lon 43.223598, lat 78.732399, elev 4,497 ft / 1,371 m msl
Status: small_airport

Weather (top)

Current conditions for Almaty Airport 74nm (138km) W (rec'd 2014/10/24 20:00Z):

UAAA 242000Z 18002MPS 0150 R23R/0600N R23L/0650N FG VV001 08/07 Q1014 R23R/CLRD65 R23L/1///60 NOSIG RMK QBB050

Airport forecast for Almaty Airport 74nm (138km) W (rec'd 2014/10/24 18:18Z):

TAF TAF UAAA 241700Z 2418/2518 14004MPS 0600 FG FU VV003 TX18/2509Z TN04/2501Z 
      TEMPO 2418/2503 0200 FG VV001 
      BECMG 2504/2505 9999 NSW BKN100 
      TEMPO 2512/2518 1000 FU

Latest comments (top)

Spelling: OK oK its Kazakhstan♄, so you have a ... [read]

Airfield: I came across this airfield on Google, ... [read]

More... (top)

See also NOTAMs and nearby airports and navaids, or visit the Chilik Southeast Airfield page at the main OurAirports website..